createdAt,value
2019-04-24T00:00:33.775Z,15.20
2019-04-24T00:01:17.866Z,15.10
2019-04-24T00:02:23.693Z,15.14
2019-04-24T00:03:13.168Z,15.13
2019-04-24T00:05:28.484Z,15.11
2019-04-24T00:06:20.234Z,15.09
2019-04-24T00:08:17.857Z,15.13
2019-04-24T00:10:20.530Z,15.11
2019-04-24T00:13:19.369Z,15.06
2019-04-24T00:14:18.135Z,15.06
2019-04-24T00:18:27.306Z,14.99
2019-04-24T00:19:19.646Z,14.99
2019-04-24T00:20:22.384Z,15.03
2019-04-24T00:21:21.916Z,15.06
2019-04-24T00:23:30.070Z,14.99
2019-04-24T00:25:18.481Z,15.01
2019-04-24T00:26:07.974Z,14.96
2019-04-24T00:27:15.436Z,14.95
2019-04-24T00:30:08.654Z,14.92
2019-04-24T00:31:09.824Z,14.99
2019-04-24T00:32:11.242Z,15.01
2019-04-24T00:33:27.079Z,14.92
2019-04-24T00:34:16.648Z,14.95
2019-04-24T00:36:26.324Z,14.92
2019-04-24T00:37:14.617Z,14.98
2019-04-24T00:38:12.811Z,14.91
2019-04-24T00:40:01.446Z,14.86
2019-04-24T00:42:16.419Z,14.92
2019-04-24T00:43:27.200Z,14.94
2019-04-24T00:44:16.914Z,14.86
2019-04-24T00:45:16.537Z,14.94
2019-04-24T00:47:13.930Z,14.95
2019-04-24T00:48:14.647Z,14.89
2019-04-24T00:49:25.575Z,14.89
2019-04-24T00:50:08.886Z,14.86
2019-04-24T00:52:19.870Z,14.81
2019-04-24T00:54:19.007Z,14.89
2019-04-24T00:55:05.196Z,14.84
2019-04-24T00:57:16.379Z,14.83
2019-04-24T00:58:15.066Z,14.81
2019-04-24T01:00:12.778Z,14.88
2019-04-24T01:01:32.728Z,14.81
2019-04-24T01:02:15.926Z,14.86
2019-04-24T01:03:28.581Z,14.80
2019-04-24T01:04:41.797Z,14.84
2019-04-24T01:05:30.124Z,14.81
2019-04-24T01:08:14.524Z,14.81
2019-04-24T01:09:14.698Z,14.83
2019-04-24T01:11:12.218Z,14.83
2019-04-24T01:12:15.808Z,14.78
2019-04-24T01:13:21.191Z,14.80
2019-04-24T01:14:13.614Z,14.72
2019-04-24T01:18:12.396Z,14.77
2019-04-24T01:19:09.527Z,14.70
2019-04-24T01:20:27.503Z,14.75
2019-04-24T01:21:16.357Z,14.75
2019-04-24T01:22:19.078Z,14.80
2019-04-24T01:23:18.686Z,14.73
2019-04-24T01:26:15.594Z,14.70
2019-04-24T01:27:13.409Z,14.64
2019-04-24T01:29:10.867Z,14.68
2019-04-24T01:30:37.848Z,14.70
2019-04-24T01:31:12.078Z,14.69
2019-04-24T01:32:05.673Z,14.65
2019-04-24T01:34:17.227Z,14.65
2019-04-24T01:35:04.926Z,14.75
2019-04-24T01:36:19.501Z,14.72
2019-04-24T01:37:12.362Z,14.68
2019-04-24T01:38:11.025Z,14.70
2019-04-24T01:39:12.792Z,14.62
2019-04-24T01:41:15.550Z,14.58
2019-04-24T01:42:20.247Z,14.65
2019-04-24T01:43:18.203Z,14.62
2019-04-24T01:44:12.075Z,14.52
2019-04-24T01:45:19.436Z,14.45
2019-04-24T01:46:23.513Z,14.47
2019-04-24T01:50:09.813Z,14.50
2019-04-24T01:51:16.869Z,14.42
2019-04-24T01:52:26.711Z,14.46
2019-04-24T01:53:16.772Z,14.35
2019-04-24T01:54:20.294Z,14.43
2019-04-24T01:55:18.347Z,14.40
2019-04-24T01:56:20.799Z,14.37
2019-04-24T01:57:17.815Z,14.33
2019-04-24T01:58:13.816Z,14.36
2019-04-24T01:59:20.216Z,14.33
2019-04-24T02:01:21.321Z,14.33
2019-04-24T02:02:17.439Z,14.40
2019-04-24T02:03:23.551Z,14.29
2019-04-24T02:04:17.248Z,14.27
2019-04-24T02:05:10.034Z,14.32
2019-04-24T02:06:22.266Z,14.21
2019-04-24T02:07:19.832Z,14.28
2019-04-24T02:08:19.668Z,14.22
2019-04-24T02:09:14.290Z,14.35
2019-04-24T02:12:18.378Z,14.18
2019-04-24T02:13:17.012Z,14.15
2019-04-24T02:14:13.420Z,14.25
2019-04-24T02:15:15.381Z,14.18
2019-04-24T02:16:10.296Z,14.22
2019-04-24T02:17:20.431Z,14.24
2019-04-24T02:18:23.644Z,14.17
2019-04-24T02:19:06.312Z,14.28
2019-04-24T02:20:29.356Z,14.25
2019-04-24T02:21:08.311Z,14.28
2019-04-24T02:22:15.325Z,14.24
2019-04-24T02:24:13.155Z,14.24
2019-04-24T02:25:18.172Z,14.22
2019-04-24T02:27:15.344Z,14.14
2019-04-24T02:30:20.413Z,14.17
2019-04-24T02:32:24.512Z,14.06
2019-04-24T02:34:16.015Z,14.04
2019-04-24T02:35:26.643Z,14.06
2019-04-24T02:37:24.072Z,14.12
2019-04-24T02:38:28.654Z,14.21
2019-04-24T02:40:24.266Z,14.02
2019-04-24T02:41:26.888Z,14.09
2019-04-24T02:42:32.509Z,14.03
2019-04-24T02:46:14.335Z,14.07
2019-04-24T02:48:30.215Z,14.07
2019-04-24T02:49:43.289Z,14.12
2019-04-24T02:50:39.015Z,14.07
2019-04-24T02:53:12.920Z,14.07
2019-04-24T02:54:43.799Z,14.03
2019-04-24T02:56:26.897Z,14.04
2019-04-24T02:59:23.829Z,13.95
2019-04-24T03:00:27.501Z,13.96
2019-04-24T03:05:17.022Z,13.79
2019-04-24T03:06:22.903Z,13.78
2019-04-24T03:07:37.365Z,13.85
2019-04-24T03:08:43.288Z,13.89
2019-04-24T03:09:25.716Z,13.81
2019-04-24T03:10:27.693Z,13.82
2019-04-24T03:13:19.232Z,13.81
2019-04-24T03:15:22.006Z,13.77
2019-04-24T03:18:09.127Z,13.73
2019-04-24T03:19:39.440Z,13.77
2019-04-24T03:20:13.025Z,13.71
2019-04-24T03:21:15.963Z,13.81
2019-04-24T03:22:34.629Z,13.84
2019-04-24T03:26:52.832Z,13.78
2019-04-24T03:27:36.607Z,13.73
2019-04-24T03:28:32.784Z,13.75
2019-04-24T03:29:29.891Z,13.81
2019-04-24T03:31:55.180Z,13.84
2019-04-24T03:39:57.147Z,13.79
2019-04-24T03:42:53.061Z,13.84
2019-04-24T03:44:49.765Z,13.84
2019-04-24T03:47:26.952Z,13.78
2019-04-24T03:48:20.848Z,13.84
2019-04-24T03:49:20.892Z,13.88
2019-04-24T03:50:57.807Z,13.78
2019-04-24T03:51:58.516Z,13.78
2019-04-24T03:53:42.589Z,13.81
2019-04-24T03:54:25.447Z,13.85
2019-04-24T03:55:32.877Z,13.82
2019-04-24T03:57:19.452Z,13.81
2019-04-24T04:00:39.994Z,13.84
2019-04-24T04:01:08.322Z,13.84
2019-04-24T04:05:27.527Z,13.84
2019-04-24T04:06:22.692Z,13.84
2019-04-24T04:10:15.836Z,13.71
2019-04-24T04:11:32.210Z,13.81
2019-04-24T04:13:31.807Z,13.81
2019-04-24T04:14:18.176Z,13.77
2019-04-24T04:19:17.041Z,13.81
2019-04-24T04:21:33.396Z,13.77
2019-04-24T04:22:18.620Z,13.81
2019-04-24T04:23:38.575Z,13.78
2019-04-24T04:25:24.417Z,13.73
2019-04-24T04:26:34.114Z,13.71
2019-04-24T04:27:25.441Z,13.73
2019-04-24T04:28:11.861Z,13.70
2019-04-24T04:29:25.740Z,13.71
2019-04-24T04:30:13.045Z,13.63
2019-04-24T04:31:24.870Z,13.77
2019-04-24T04:32:37.051Z,13.73
2019-04-24T04:33:29.816Z,13.71
2019-04-24T04:35:08.112Z,13.69
2019-04-24T04:36:34.535Z,13.69
2019-04-24T04:39:01.703Z,13.73
2019-04-24T04:48:08.990Z,13.85
2019-04-24T04:49:18.769Z,13.78
2019-04-24T04:50:25.900Z,13.88
2019-04-24T04:51:19.686Z,13.79
2019-04-24T04:54:40.534Z,13.84
2019-04-24T04:56:06.462Z,13.96
2019-04-24T04:56:26.211Z,13.99
2019-04-24T04:57:18.404Z,13.96
2019-04-24T04:58:23.037Z,13.99
2019-04-24T04:59:05.290Z,14.14
2019-04-24T05:00:24.679Z,14.06
2019-04-24T05:02:13.493Z,14.02
2019-04-24T05:03:15.660Z,14.06
2019-04-24T05:08:59.662Z,14.17
2019-04-24T05:09:33.737Z,14.24
2019-04-24T05:10:06.414Z,14.27
2019-04-24T05:15:07.522Z,14.40
2019-04-24T05:17:23.552Z,14.43
2019-04-24T05:18:19.930Z,14.45
2019-04-24T05:19:24.194Z,14.42
2019-04-24T05:19:57.530Z,14.43
2019-04-24T05:21:05.974Z,14.52
2019-04-24T05:23:05.047Z,14.43
2019-04-24T05:24:09.945Z,14.42
2019-04-24T05:25:06.601Z,14.52
2019-04-24T05:28:18.844Z,14.54
2019-04-24T05:29:57.495Z,14.57
2019-04-24T05:30:58.561Z,14.62
2019-04-24T05:32:03.736Z,14.72
2019-04-24T05:33:23.056Z,14.55
2019-04-24T05:34:10.531Z,14.72
2019-04-24T05:35:02.901Z,14.54
2019-04-24T05:36:18.641Z,14.69
2019-04-24T05:37:11.005Z,14.75
2019-04-24T05:37:57.959Z,14.73
2019-04-24T05:39:20.393Z,14.64
2019-04-24T05:41:18.787Z,14.70
2019-04-24T05:42:04.949Z,14.69
2019-04-24T05:43:04.659Z,14.73
2019-04-24T05:45:04.651Z,14.70
2019-04-24T05:46:05.157Z,14.72
2019-04-24T05:46:56.379Z,14.73
2019-04-24T05:47:56.147Z,14.70
2019-04-24T05:52:27.181Z,14.80
2019-04-24T05:53:03.959Z,14.78
2019-04-24T05:54:09.433Z,14.89
2019-04-24T05:55:03.894Z,14.86
2019-04-24T05:57:25.300Z,14.89
2019-04-24T05:59:29.114Z,14.86
2019-04-24T06:06:15.006Z,14.99
2019-04-24T06:08:12.335Z,15.13
2019-04-24T06:09:06.426Z,15.11
2019-04-24T06:11:09.814Z,15.23
2019-04-24T06:12:17.665Z,15.35
2019-04-24T06:14:07.567Z,15.36
2019-04-24T06:14:58.928Z,15.38
2019-04-24T06:17:08.418Z,15.39
2019-04-24T06:18:09.014Z,15.46
2019-04-24T06:19:16.679Z,15.36
2019-04-24T06:22:05.060Z,15.43
2019-04-24T06:25:02.687Z,15.53
2019-04-24T06:27:15.177Z,15.68
2019-04-24T06:28:05.443Z,15.78
2019-04-24T06:31:23.185Z,15.92
2019-04-24T06:32:48.002Z,16.25
2019-04-24T06:35:16.189Z,16.25
2019-04-24T06:36:06.605Z,16.34
2019-04-24T06:37:21.835Z,16.31
2019-04-24T06:38:02.465Z,16.33
2019-04-24T06:43:04.486Z,16.12
2019-04-24T06:44:00.317Z,16.21
2019-04-24T06:46:04.475Z,16.25
2019-04-24T06:47:22.739Z,16.17
2019-04-24T06:48:13.976Z,16.39
2019-04-24T06:50:13.227Z,16.30
2019-04-24T06:51:01.801Z,16.30
2019-04-24T06:52:17.302Z,16.11
2019-04-24T06:53:03.833Z,16.04
2019-04-24T06:54:08.445Z,16.09
2019-04-24T06:56:06.723Z,16.24
2019-04-24T06:57:19.362Z,16.21
2019-04-24T06:58:54.867Z,16.31
2019-04-24T07:00:18.043Z,16.39
2019-04-24T07:02:01.279Z,16.45
2019-04-24T07:02:56.485Z,16.46
2019-04-24T07:04:39.267Z,16.49
2019-04-24T07:06:14.267Z,16.56
2019-04-24T07:09:20.255Z,16.48
2019-04-24T07:10:05.366Z,16.46
2019-04-24T07:13:00.755Z,16.43
2019-04-24T07:14:10.836Z,16.33
2019-04-24T07:15:00.414Z,16.38
2019-04-24T07:16:00.561Z,16.42
2019-04-24T07:18:15.316Z,16.46
2019-04-24T07:18:54.797Z,16.49
2019-04-24T07:19:55.836Z,16.49
2019-04-24T07:21:03.292Z,16.57
2019-04-24T07:22:03.014Z,16.73
2019-04-24T07:22:59.408Z,16.66
2019-04-24T07:24:03.735Z,16.64
2019-04-24T07:24:59.533Z,16.63
2019-04-24T07:27:00.372Z,16.64
2019-04-24T07:28:07.766Z,16.71
2019-04-24T07:29:00.702Z,16.67
2019-04-24T07:31:09.577Z,16.81
2019-04-24T07:34:08.736Z,16.88
2019-04-24T07:35:07.692Z,17.15
2019-04-24T07:36:55.517Z,17.28
2019-04-24T07:38:00.851Z,17.38
2019-04-24T07:38:51.768Z,17.40
2019-04-24T07:39:53.280Z,17.44
2019-04-24T07:41:12.284Z,17.48
2019-04-24T07:43:15.654Z,17.54
2019-04-24T07:44:04.039Z,17.66
2019-04-24T07:44:57.157Z,17.63
2019-04-24T07:47:55.763Z,17.87
2019-04-24T07:50:02.910Z,17.99
2019-04-24T07:51:09.218Z,18.21
2019-04-24T07:53:05.316Z,18.45
2019-04-24T07:56:59.729Z,18.76
2019-04-24T07:57:55.841Z,18.85
2019-04-24T07:59:09.163Z,18.81
2019-04-24T08:00:57.195Z,18.95
2019-04-24T08:04:07.387Z,18.78
2019-04-24T08:04:58.069Z,18.50
2019-04-24T08:06:09.102Z,18.67
2019-04-24T08:07:06.089Z,19.06
2019-04-24T08:07:56.641Z,19.14
2019-04-24T08:09:06.611Z,19.37
2019-04-24T08:10:50.784Z,19.47
2019-04-24T08:12:08.592Z,19.56
2019-04-24T08:13:02.744Z,19.78
2019-04-24T08:14:00.623Z,19.78
2019-04-24T08:17:05.621Z,20.94
2019-04-24T08:18:02.062Z,21.01
2019-04-24T08:19:02.063Z,21.12
2019-04-24T08:20:16.169Z,21.27
2019-04-24T08:20:59.770Z,21.21
2019-04-24T08:22:09.138Z,21.27
2019-04-24T08:22:55.430Z,21.58
2019-04-24T08:24:00.436Z,22.21
2019-04-24T08:27:07.764Z,23.25
2019-04-24T08:28:54.232Z,23.00
2019-04-24T08:30:00.345Z,22.98
2019-04-24T08:31:15.991Z,22.54
2019-04-24T08:32:21.643Z,22.64
2019-04-24T08:35:24.842Z,22.90
2019-04-24T08:36:08.537Z,22.82
2019-04-24T08:36:59.125Z,22.77
2019-04-24T08:38:02.270Z,22.86
2019-04-24T08:39:20.740Z,23.01
2019-04-24T08:42:59.905Z,23.33
2019-04-24T08:44:56.567Z,23.87
2019-04-24T08:45:44.973Z,23.73
2019-04-24T08:46:53.702Z,23.48
2019-04-24T08:48:00.527Z,23.54
2019-04-24T08:49:57.293Z,24.28
2019-04-24T08:51:13.107Z,24.27
2019-04-24T08:57:39.566Z,24.10
2019-04-24T08:58:29.053Z,24.15
2019-04-24T09:01:41.232Z,24.13
2019-04-24T09:02:41.016Z,24.09
2019-04-24T09:03:54.399Z,24.12
2019-04-24T09:04:43.082Z,23.83
2019-04-24T09:05:37.537Z,23.94
2019-04-24T09:06:32.631Z,23.88
2019-04-24T09:07:37.124Z,23.22
2019-04-24T09:08:42.468Z,22.86
2019-04-24T09:09:47.862Z,22.40
2019-04-24T09:11:31.434Z,22.21
2019-04-24T09:12:41.514Z,22.27
2019-04-24T09:13:39.951Z,22.37
2019-04-24T09:14:27.923Z,22.47
2019-04-24T09:16:41.076Z,22.72
2019-04-24T09:17:23.138Z,22.72
2019-04-24T09:18:37.283Z,23.07
2019-04-24T09:19:29.822Z,23.47
2019-04-24T09:20:50.935Z,23.50
2019-04-24T09:21:30.790Z,23.51
2019-04-24T09:22:29.832Z,23.51
2019-04-24T09:27:39.642Z,24.42
2019-04-24T09:29:42.387Z,24.64
2019-04-24T09:29:50.070Z,24.76
2019-04-24T09:31:35.912Z,24.84
2019-04-24T09:33:36.809Z,24.77
2019-04-24T09:34:29.520Z,24.77
2019-04-24T09:36:42.242Z,24.90
2019-04-24T09:38:37.315Z,24.84
2019-04-24T09:39:31.140Z,24.96
2019-04-24T09:42:58.263Z,25.50
2019-04-24T09:44:43.754Z,25.42
2019-04-24T09:45:41.177Z,25.39
2019-04-24T09:49:21.398Z,26.05
2019-04-24T09:50:38.702Z,26.10
2019-04-24T09:51:35.261Z,26.07
2019-04-24T09:53:16.076Z,26.06
2019-04-24T09:54:38.833Z,26.20
2019-04-24T09:55:39.242Z,26.06
2019-04-24T09:56:40.207Z,25.90
2019-04-24T09:57:38.497Z,25.91
2019-04-24T09:58:55.697Z,26.17
2019-04-24T09:59:34.713Z,26.39
2019-04-24T10:00:45.960Z,26.62
2019-04-24T10:03:35.016Z,27.10
2019-04-24T10:04:38.308Z,27.09
2019-04-24T10:07:02.652Z,27.62
2019-04-24T10:07:29.849Z,27.60
2019-04-24T10:09:32.150Z,27.63
2019-04-24T10:11:51.494Z,28.04
2019-04-24T10:13:31.031Z,27.92
2019-04-24T10:14:26.815Z,27.85
2019-04-24T10:15:31.975Z,28.22
2019-04-24T10:16:35.779Z,28.11
2019-04-24T10:17:25.633Z,28.00
2019-04-24T10:18:47.806Z,27.94
2019-04-24T10:19:52.064Z,28.09
2019-04-24T10:20:24.695Z,28.18
2019-04-24T10:21:33.216Z,28.41
2019-04-24T10:22:40.165Z,28.64
2019-04-24T10:23:38.333Z,28.85
2019-04-24T10:24:35.971Z,29.14
2019-04-24T10:25:21.563Z,29.19
2019-04-24T10:26:27.593Z,29.27
2019-04-24T10:28:42.601Z,28.71
2019-04-24T10:30:38.563Z,28.00
2019-04-24T10:31:47.132Z,27.87
2019-04-24T10:32:31.667Z,28.25
2019-04-24T10:33:33.385Z,28.64
2019-04-24T10:34:23.131Z,29.23
2019-04-24T10:35:33.322Z,29.58
2019-04-24T10:36:30.130Z,29.89
2019-04-24T10:37:47.277Z,29.86
2019-04-24T10:38:37.882Z,30.01
2019-04-24T10:39:59.023Z,30.37
2019-04-24T10:41:36.945Z,30.62
2019-04-24T10:42:24.889Z,30.98
2019-04-24T10:44:34.617Z,31.14
2019-04-24T10:45:28.200Z,30.54
2019-04-24T10:46:31.416Z,29.78
2019-04-24T10:47:42.324Z,29.89
2019-04-24T10:48:18.862Z,30.19
2019-04-24T10:50:33.470Z,30.16
2019-04-24T10:51:39.592Z,29.67
2019-04-24T10:52:35.382Z,29.52
2019-04-24T10:54:36.383Z,29.87
2019-04-24T10:55:35.561Z,29.58
2019-04-24T10:56:30.543Z,29.46
2019-04-24T10:57:33.833Z,29.92
2019-04-24T10:58:32.559Z,30.27
2019-04-24T10:59:31.427Z,30.24
2019-04-24T11:00:38.326Z,30.53
2019-04-24T11:01:35.647Z,30.67
2019-04-24T11:02:45.200Z,30.53
2019-04-24T11:03:40.202Z,30.32
2019-04-24T11:04:41.583Z,29.98
2019-04-24T11:06:35.256Z,30.35
2019-04-24T11:07:33.385Z,30.75
2019-04-24T11:08:46.101Z,30.62
2019-04-24T11:09:49.932Z,30.38
2019-04-24T11:10:36.810Z,30.69
2019-04-24T11:11:39.991Z,30.61
2019-04-24T11:12:32.199Z,30.02
2019-04-24T11:14:31.506Z,29.43
2019-04-24T11:15:42.463Z,29.45
2019-04-24T11:17:31.678Z,29.94
2019-04-24T11:18:44.516Z,29.90
2019-04-24T11:20:40.423Z,30.01
2019-04-24T11:23:27.403Z,30.73
2019-04-24T11:26:55.324Z,30.88
2019-04-24T11:27:26.064Z,30.55
2019-04-24T11:28:40.687Z,30.46
2019-04-24T11:29:31.665Z,30.51
2019-04-24T11:30:20.947Z,30.94
2019-04-24T11:31:40.036Z,30.91
2019-04-24T11:32:31.141Z,30.79
2019-04-24T11:33:50.685Z,30.86
2019-04-24T11:36:52.950Z,30.08
2019-04-24T11:37:31.559Z,30.38
2019-04-24T11:39:43.140Z,30.82
2019-04-24T11:40:38.450Z,30.57
2019-04-24T11:41:47.794Z,30.42
2019-04-24T11:42:32.857Z,30.31
2019-04-24T11:43:28.647Z,30.00
2019-04-24T11:44:24.945Z,29.43
2019-04-24T11:45:40.038Z,29.31
2019-04-24T11:46:56.642Z,29.21
2019-04-24T11:47:52.044Z,29.23
2019-04-24T11:51:34.213Z,29.05
2019-04-24T11:52:43.041Z,29.08
2019-04-24T11:53:47.127Z,29.09
2019-04-24T11:54:38.622Z,29.14
2019-04-24T11:59:08.348Z,30.37
2019-04-24T12:00:12.102Z,30.16
2019-04-24T12:01:30.534Z,30.01
2019-04-24T12:03:22.764Z,29.85
2019-04-24T12:06:32.661Z,29.45
2019-04-24T12:07:58.166Z,29.08
2019-04-24T12:08:32.272Z,28.40
2019-04-24T12:09:24.595Z,28.17
2019-04-24T12:10:26.580Z,28.27
2019-04-24T12:11:35.110Z,28.33
2019-04-24T12:12:25.905Z,28.74
2019-04-24T12:13:42.192Z,29.12
2019-04-24T12:14:23.666Z,29.70
2019-04-24T12:15:32.846Z,30.01
2019-04-24T12:17:31.258Z,30.54
2019-04-24T12:18:43.942Z,30.60
2019-04-24T12:19:44.981Z,30.62
2019-04-24T12:20:32.073Z,30.79
2019-04-24T12:21:36.819Z,30.88
2019-04-24T12:22:30.766Z,31.21
2019-04-24T12:23:26.665Z,31.35
2019-04-24T12:24:21.202Z,31.28
2019-04-24T12:25:37.644Z,31.29
2019-04-24T12:26:28.490Z,31.39
2019-04-24T12:27:28.771Z,31.86
2019-04-24T12:29:24.517Z,31.48
2019-04-24T12:30:18.990Z,31.35
2019-04-24T12:32:17.270Z,31.44
2019-04-24T12:33:33.967Z,31.62
2019-04-24T12:34:28.742Z,31.96
2019-04-24T12:35:29.007Z,32.18
2019-04-24T12:36:26.597Z,31.80
2019-04-24T12:38:37.965Z,30.89
2019-04-24T12:39:39.157Z,30.43
2019-04-24T12:40:35.600Z,30.69
2019-04-24T12:41:27.370Z,30.77
2019-04-24T12:43:30.373Z,31.28
2019-04-24T12:44:25.735Z,31.16
2019-04-24T12:46:56.175Z,30.54
2019-04-24T12:47:29.604Z,30.61
2019-04-24T12:48:37.515Z,30.43
2019-04-24T12:49:34.822Z,30.00
2019-04-24T12:50:26.455Z,29.57
2019-04-24T12:52:22.664Z,29.48
2019-04-24T12:53:29.757Z,29.46
2019-04-24T12:55:22.271Z,29.34
2019-04-24T12:56:53.127Z,29.48
2019-04-24T12:57:24.997Z,29.48
2019-04-24T12:58:43.037Z,29.27
2019-04-24T12:59:41.605Z,28.98
2019-04-24T13:00:35.311Z,28.70
2019-04-24T13:01:31.006Z,28.03
2019-04-24T13:02:33.120Z,27.96
2019-04-24T13:03:26.641Z,27.82
2019-04-24T13:04:47.880Z,27.63
2019-04-24T13:05:28.102Z,27.60
2019-04-24T13:06:05.915Z,27.84
2019-04-24T13:07:20.423Z,27.96
2019-04-24T13:08:33.667Z,27.85
2019-04-24T13:09:29.420Z,27.84
2019-04-24T13:10:40.376Z,27.29
2019-04-24T13:11:32.745Z,27.17
2019-04-24T13:12:47.433Z,27.18
2019-04-24T13:13:41.028Z,27.27
2019-04-24T13:14:42.622Z,27.25
2019-04-24T13:15:33.189Z,27.25
2019-04-24T13:16:35.087Z,26.99
2019-04-24T13:17:55.291Z,26.73
2019-04-24T13:20:02.788Z,26.25
2019-04-24T13:21:06.381Z,26.37
2019-04-24T13:22:07.778Z,26.44
2019-04-24T13:23:13.548Z,26.36
2019-04-24T13:24:13.085Z,26.35
2019-04-24T13:25:30.140Z,26.32
2019-04-24T13:26:33.723Z,26.28
2019-04-24T13:27:58.729Z,26.30
2019-04-24T13:28:51.884Z,26.28
2019-04-24T13:29:29.434Z,26.20
2019-04-24T13:32:37.224Z,26.21
2019-04-24T13:35:25.207Z,26.18
2019-04-24T13:36:41.993Z,26.20
2019-04-24T13:40:32.049Z,26.36
2019-04-24T13:41:24.607Z,26.40
2019-04-24T13:42:36.798Z,26.25
2019-04-24T13:43:37.259Z,26.33
2019-04-24T13:44:28.206Z,26.36
2019-04-24T13:46:17.171Z,26.20
2019-04-24T13:47:29.275Z,26.17
2019-04-24T13:48:35.363Z,26.12
2019-04-24T13:49:28.962Z,26.09
2019-04-24T13:51:24.328Z,26.09
2019-04-24T13:53:36.073Z,26.12
2019-04-24T13:54:48.195Z,26.15
2019-04-24T13:55:50.426Z,26.05
2019-04-24T13:56:26.383Z,25.98
2019-04-24T13:57:32.958Z,25.95
2019-04-24T13:58:29.965Z,25.82
2019-04-24T13:59:27.581Z,25.77
2019-04-24T14:00:47.757Z,25.73
2019-04-24T14:02:42.940Z,25.85
2019-04-24T14:03:36.414Z,25.92
2019-04-24T14:06:37.716Z,26.28
2019-04-24T14:08:41.973Z,26.36
2019-04-24T14:10:15.015Z,26.50
2019-04-24T14:10:55.153Z,26.54
2019-04-24T14:13:25.750Z,26.32
2019-04-24T14:14:39.303Z,26.12
2019-04-24T14:15:34.583Z,26.10
2019-04-24T14:16:28.504Z,25.97
2019-04-24T14:17:41.054Z,25.90
2019-04-24T14:20:29.897Z,25.85
2019-04-24T14:21:24.651Z,25.92
2019-04-24T14:22:32.951Z,25.83
2019-04-24T14:24:28.207Z,25.94
2019-04-24T14:26:34.835Z,26.01
2019-04-24T14:27:25.331Z,26.06
2019-04-24T14:29:28.227Z,26.17
2019-04-24T14:32:27.640Z,26.13
2019-04-24T14:33:37.726Z,26.17
2019-04-24T14:34:34.747Z,26.20
2019-04-24T14:35:38.063Z,26.23
2019-04-24T14:36:33.272Z,26.18
2019-04-24T14:38:30.965Z,26.17
2019-04-24T14:40:28.976Z,26.01
2019-04-24T14:43:46.816Z,25.83
2019-04-24T14:44:55.835Z,25.72
2019-04-24T14:45:37.514Z,25.83
2019-04-24T14:46:52.889Z,25.88
2019-04-24T14:47:37.964Z,25.85
2019-04-24T14:48:24.907Z,25.92
2019-04-24T14:49:41.786Z,25.88
2019-04-24T14:50:30.094Z,25.97
2019-04-24T14:51:31.107Z,25.85
2019-04-24T14:52:35.019Z,25.76
2019-04-24T14:53:33.694Z,25.69
2019-04-24T14:56:30.628Z,25.54
2019-04-24T14:57:45.166Z,25.58
2019-04-24T14:58:27.041Z,25.54
2019-04-24T15:00:32.907Z,25.60
2019-04-24T15:01:36.773Z,25.58
2019-04-24T15:03:21.056Z,25.70
2019-04-24T15:04:27.055Z,25.76
2019-04-24T15:06:36.096Z,25.69
2019-04-24T15:07:34.130Z,25.69
2019-04-24T15:09:28.499Z,25.60
2019-04-24T15:10:30.261Z,25.55
2019-04-24T15:11:34.495Z,25.58
2019-04-24T15:12:26.509Z,25.57
2019-04-24T15:13:45.003Z,25.62
2019-04-24T15:16:09.211Z,25.54
2019-04-24T15:17:32.099Z,25.45
2019-04-24T15:18:33.572Z,25.42
2019-04-24T15:19:34.577Z,25.46
2019-04-24T15:21:36.391Z,25.52
2019-04-24T15:23:34.962Z,25.51
2019-04-24T15:24:51.431Z,25.58
2019-04-24T15:25:36.941Z,25.54
2019-04-24T15:26:25.200Z,25.55
2019-04-24T15:27:23.987Z,25.52
2019-04-24T15:28:29.102Z,25.52
2019-04-24T15:29:31.907Z,25.52
2019-04-24T15:30:31.631Z,25.57
2019-04-24T15:31:20.356Z,25.58
2019-04-24T15:34:33.311Z,25.58
2019-04-24T15:35:29.704Z,25.58
2019-04-24T15:36:25.847Z,25.55
2019-04-24T15:38:26.241Z,25.39
2019-04-24T15:39:28.887Z,25.40
2019-04-24T15:41:30.856Z,25.43
2019-04-24T15:44:34.752Z,25.42
2019-04-24T15:45:26.634Z,25.42
2019-04-24T15:46:30.512Z,25.35
2019-04-24T15:48:33.623Z,25.25
2019-04-24T15:49:24.589Z,25.18
2019-04-24T15:50:38.568Z,25.18
2019-04-24T15:51:26.096Z,25.06
2019-04-24T15:52:02.191Z,25.15
2019-04-24T15:52:58.490Z,25.06
2019-04-24T15:53:59.354Z,25.00
2019-04-24T15:54:58.472Z,25.00
2019-04-24T15:55:58.752Z,24.90
2019-04-24T15:56:57.936Z,24.90
2019-04-24T15:58:00.823Z,24.76
2019-04-24T15:59:07.147Z,24.69
2019-04-24T16:00:20.870Z,24.67
2019-04-24T16:01:26.063Z,24.58
2019-04-24T16:02:43.710Z,24.55
2019-04-24T16:03:35.501Z,24.50
2019-04-24T16:04:35.397Z,24.32
2019-04-24T16:04:57.918Z,24.21
2019-04-24T16:05:57.858Z,24.18
2019-04-24T16:06:58.629Z,24.08
2019-04-24T16:07:57.862Z,23.95
2019-04-24T16:08:58.153Z,23.90
2019-04-24T16:09:58.052Z,23.91
2019-04-24T16:10:57.812Z,23.83
2019-04-24T16:11:58.635Z,23.83
2019-04-24T16:12:57.795Z,23.79
2019-04-24T16:14:10.152Z,23.75
2019-04-24T16:15:20.374Z,23.76
2019-04-24T16:16:24.498Z,23.75
2019-04-24T16:17:22.737Z,23.76
2019-04-24T16:18:36.268Z,23.83
2019-04-24T16:19:32.397Z,23.84
2019-04-24T16:20:17.943Z,23.75
2019-04-24T16:21:21.054Z,23.65
2019-04-24T16:22:24.567Z,23.65
2019-04-24T16:23:47.085Z,23.60
2019-04-24T16:26:32.456Z,23.42
2019-04-24T16:27:32.855Z,23.48
2019-04-24T16:30:16.431Z,23.39
2019-04-24T16:31:46.025Z,23.46
2019-04-24T16:34:26.154Z,23.25
2019-04-24T16:35:28.742Z,23.32
2019-04-24T16:36:36.585Z,23.23
2019-04-24T16:37:31.726Z,23.20
2019-04-24T16:39:22.833Z,23.10
2019-04-24T16:40:41.221Z,23.09
2019-04-24T16:41:30.771Z,23.15
2019-04-24T16:42:31.667Z,23.13
2019-04-24T16:43:44.391Z,23.12
2019-04-24T16:44:34.333Z,23.00
2019-04-24T16:47:33.195Z,22.98
2019-04-24T16:48:29.672Z,22.91
2019-04-24T16:50:34.202Z,22.79
2019-04-24T16:52:20.417Z,22.73
2019-04-24T16:55:27.932Z,22.70
2019-04-24T16:56:32.720Z,22.62
2019-04-24T16:57:30.105Z,22.68
2019-04-24T16:58:25.346Z,22.55
2019-04-24T17:00:38.843Z,22.54
2019-04-24T17:02:18.188Z,22.36
2019-04-24T17:04:29.085Z,22.36
2019-04-24T17:05:29.595Z,22.36
2019-04-24T17:06:29.119Z,22.36
2019-04-24T17:07:24.575Z,22.24
2019-04-24T17:08:33.241Z,22.22
2019-04-24T17:09:38.073Z,22.20
2019-04-24T17:10:19.281Z,22.18
2019-04-24T17:11:52.062Z,22.20
2019-04-24T17:12:25.722Z,22.10
2019-04-24T17:14:27.571Z,22.12
2019-04-24T17:15:43.775Z,22.06
2019-04-24T17:16:35.958Z,22.05
2019-04-24T17:17:47.784Z,21.99
2019-04-24T17:18:58.733Z,21.96
2019-04-24T17:19:35.278Z,21.92
2019-04-24T17:20:22.326Z,21.96
2019-04-24T17:21:43.302Z,21.86
2019-04-24T17:23:25.356Z,21.75
2019-04-24T17:24:22.743Z,21.79
2019-04-24T17:25:26.600Z,21.80
2019-04-24T17:27:22.107Z,21.71
2019-04-24T17:28:25.532Z,21.58
2019-04-24T17:29:35.102Z,21.62
2019-04-24T17:31:28.749Z,21.56
2019-04-24T17:33:27.134Z,21.44
2019-04-24T17:35:39.235Z,21.42
2019-04-24T17:36:19.185Z,21.52
2019-04-24T17:36:56.961Z,21.42
2019-04-24T17:37:56.947Z,21.40
2019-04-24T17:38:56.934Z,21.34
2019-04-24T17:39:56.926Z,21.28
2019-04-24T17:40:57.839Z,21.28
2019-04-24T17:42:02.111Z,21.25
2019-04-24T17:43:51.061Z,21.12
2019-04-24T17:45:20.505Z,21.12
2019-04-24T17:48:39.557Z,21.12
2019-04-24T17:50:23.548Z,21.01
2019-04-24T17:51:38.594Z,21.04
2019-04-24T17:52:40.269Z,20.97
2019-04-24T17:53:38.535Z,20.99
2019-04-24T17:55:25.486Z,20.95
2019-04-24T17:56:27.891Z,20.84
2019-04-24T17:58:04.420Z,20.79
2019-04-24T17:58:56.713Z,20.76
2019-04-24T17:59:56.699Z,20.66
2019-04-24T18:00:56.694Z,20.70
2019-04-24T18:01:56.676Z,20.57
2019-04-24T18:03:04.863Z,20.58
2019-04-24T18:03:56.655Z,20.48
2019-04-24T18:04:56.643Z,20.54
2019-04-24T18:05:56.634Z,20.39
2019-04-24T18:06:56.620Z,20.36
2019-04-24T18:07:56.607Z,20.36
2019-04-24T18:08:56.669Z,20.35
2019-04-24T18:09:56.601Z,20.29
2019-04-24T18:10:56.569Z,20.28
2019-04-24T18:11:56.784Z,20.20
2019-04-24T18:12:56.547Z,20.21
2019-04-24T18:13:56.539Z,20.16
2019-04-24T18:14:56.530Z,20.24
2019-04-24T18:15:56.516Z,20.11
2019-04-24T18:16:56.504Z,20.11
2019-04-24T18:17:56.491Z,20.01
2019-04-24T18:18:56.475Z,19.98
2019-04-24T18:19:56.522Z,19.94
2019-04-24T18:20:56.457Z,19.96
2019-04-24T18:21:56.447Z,19.92
2019-04-24T18:22:56.433Z,19.81
2019-04-24T18:23:56.423Z,19.80